MDBL weather

Boca Chica Airport
Boca Chica, Distrito Nacional, Dominican Republic

Public forecast

Using degrees Celsius for public forecast. Weather courtesy of forecast.io.

METAR (pilot weather report)

Closest report is Las Américas International Airport, 4.5 nm (8.4 km) WSW. Retrieved 2019/07/20 03:00 UTC (9 minutes ago):

MDSD 200300Z 01003KT 9999 FEW018 24/22 Q1017

TAF (pilot weather forecast)

Forecast is more than 12 hours old.

Closest forecast is Las Américas International Airport, 4.5 nm (8.4 km) WSW. Retrieved 2019/07/19 00:05 UTC (1 day ago):

TAF MDSD 192200Z 2000/2024 04004KT 9999 FEW016CB SCT018 PROB30 2000/2004 7000 -TSRA FEW016CB BKN18 BECMG 2014/2016 14010KT